sensor_id;sensor_type;location;lat;lon;timestamp;temperature;humidity
68609;SHT31;55581;46.718;7.690;2022-12-07T00:01:28;0.77;90.66
68609;SHT31;55581;46.718;7.690;2022-12-07T00:03:57;0.65;91.23
68609;SHT31;55581;46.718;7.690;2022-12-07T00:06:29;0.64;91.64
68609;SHT31;55581;46.718;7.690;2022-12-07T00:08:54;0.65;91.07
68609;SHT31;55581;46.718;7.690;2022-12-07T00:11:21;0.52;90.84
68609;SHT31;55581;46.718;7.690;2022-12-07T00:13:51;0.44;91.33
68609;SHT31;55581;46.718;7.690;2022-12-07T00:16:21;0.37;91.29
68609;SHT31;55581;46.718;7.690;2022-12-07T00:18:47;0.37;92.06
68609;SHT31;55581;46.718;7.690;2022-12-07T00:21:20;0.22;91.86
68609;SHT31;55581;46.718;7.690;2022-12-07T00:23:47;0.16;91.99
68609;SHT31;55581;46.718;7.690;2022-12-07T00:26:16;0.08;91.89
68609;SHT31;55581;46.718;7.690;2022-12-07T00:28:48;0.03;92.39
68609;SHT31;55581;46.718;7.690;2022-12-07T00:31:14;0.06;93.09
68609;SHT31;55581;46.718;7.690;2022-12-07T00:33:45;0.02;92.18
68609;SHT31;55581;46.718;7.690;2022-12-07T00:36:13;0.10;92.11
68609;SHT31;55581;46.718;7.690;2022-12-07T00:38:41;0.22;92.35
68609;SHT31;55581;46.718;7.690;2022-12-07T00:41:10;0.30;91.54
68609;SHT31;55581;46.718;7.690;2022-12-07T00:43:36;0.39;91.13
68609;SHT31;55581;46.718;7.690;2022-12-07T00:46:02;0.47;90.68
68609;SHT31;55581;46.718;7.690;2022-12-07T00:48:28;0.52;90.11
68609;SHT31;55581;46.718;7.690;2022-12-07T00:50:54;0.50;90.15
68609;SHT31;55581;46.718;7.690;2022-12-07T00:53:19;0.54;90.34
68609;SHT31;55581;46.718;7.690;2022-12-07T00:55:45;0.60;90.79
68609;SHT31;55581;46.718;7.690;2022-12-07T00:58:11;0.64;90.03
68609;SHT31;55581;46.718;7.690;2022-12-07T01:00:38;0.71;89.56
68609;SHT31;55581;46.718;7.690;2022-12-07T01:03:04;0.72;89.48
68609;SHT31;55581;46.718;7.690;2022-12-07T01:05:30;0.78;89.53
68609;SHT31;55581;46.718;7.690;2022-12-07T01:07:55;0.80;89.78
68609;SHT31;55581;46.718;7.690;2022-12-07T01:10:21;0.78;90.38
68609;SHT31;55581;46.718;7.690;2022-12-07T01:12:46;0.80;89.32
68609;SHT31;55581;46.718;7.690;2022-12-07T01:15:11;0.85;89.25
68609;SHT31;55581;46.718;7.690;2022-12-07T01:17:37;0.88;89.41
68609;SHT31;55581;46.718;7.690;2022-12-07T01:20:06;0.89;88.83
68609;SHT31;55581;46.718;7.690;2022-12-07T01:22:37;0.88;89.21
68609;SHT31;55581;46.718;7.690;2022-12-07T01:25:02;0.96;89.36
68609;SHT31;55581;46.718;7.690;2022-12-07T01:27:28;0.95;88.90
68609;SHT31;55581;46.718;7.690;2022-12-07T01:29:56;1.03;89.13
68609;SHT31;55581;46.718;7.690;2022-12-07T01:32:21;1.13;89.04
68609;SHT31;55581;46.718;7.690;2022-12-07T01:34:48;1.20;88.64
68609;SHT31;55581;46.718;7.690;2022-12-07T01:37:13;1.19;89.31
68609;SHT31;55581;46.718;7.690;2022-12-07T01:39:39;1.16;89.71
68609;SHT31;55581;46.718;7.690;2022-12-07T01:42:04;1.19;89.91
68609;SHT31;55581;46.718;7.690;2022-12-07T01:44:30;1.29;89.64
68609;SHT31;55581;46.718;7.690;2022-12-07T01:47:02;1.26;89.82
68609;SHT31;55581;46.718;7.690;2022-12-07T01:49:31;1.32;89.95
68609;SHT31;55581;46.718;7.690;2022-12-07T01:52:14;1.37;89.87
68609;SHT31;55581;46.718;7.690;2022-12-07T01:54:42;1.43;89.84
68609;SHT31;55581;46.718;7.690;2022-12-07T01:57:09;1.40;88.74
68609;SHT31;55581;46.718;7.690;2022-12-07T01:59:36;1.43;88.56
68609;SHT31;55581;46.718;7.690;2022-12-07T02:02:08;1.39;89.14
68609;SHT31;55581;46.718;7.690;2022-12-07T02:04:35;1.37;88.78
68609;SHT31;55581;46.718;7.690;2022-12-07T02:07:03;1.40;89.24
68609;SHT31;55581;46.718;7.690;2022-12-07T02:09:31;1.44;89.12
68609;SHT31;55581;46.718;7.690;2022-12-07T02:11:58;1.42;88.35
68609;SHT31;55581;46.718;7.690;2022-12-07T02:14:28;1.44;88.80
68609;SHT31;55581;46.718;7.690;2022-12-07T02:17:23;1.48;88.33
68609;SHT31;55581;46.718;7.690;2022-12-07T02:23:00;1.58;88.03
68609;SHT31;55581;46.718;7.690;2022-12-07T02:25:41;1.60;86.90
68609;SHT31;55581;46.718;7.690;2022-12-07T02:28:31;1.54;87.58
68609;SHT31;55581;46.718;7.690;2022-12-07T02:31:03;1.43;87.16
68609;SHT31;55581;46.718;7.690;2022-12-07T02:33:41;1.35;86.73
68609;SHT31;55581;46.718;7.690;2022-12-07T02:36:13;1.40;88.12
68609;SHT31;55581;46.718;7.690;2022-12-07T02:39:01;1.44;87.84
68609;SHT31;55581;46.718;7.690;2022-12-07T02:41:36;1.46;87.51
68609;SHT31;55581;46.718;7.690;2022-12-07T02:44:14;1.43;88.00
68609;SHT31;55581;46.718;7.690;2022-12-07T02:46:46;1.48;87.87
68609;SHT31;55581;46.718;7.690;2022-12-07T02:49:14;1.50;87.51
68609;SHT31;55581;46.718;7.690;2022-12-07T02:51:45;1.51;87.51
68609;SHT31;55581;46.718;7.690;2022-12-07T02:54:17;1.43;87.08
68609;SHT31;55581;46.718;7.690;2022-12-07T03:02:20;1.48;87.44
68609;SHT31;55581;46.718;7.690;2022-12-07T03:10:26;1.51;86.84
68609;SHT31;55581;46.718;7.690;2022-12-07T03:13:07;1.50;87.80
68609;SHT31;55581;46.718;7.690;2022-12-07T03:15:49;1.60;87.29
68609;SHT31;55581;46.718;7.690;2022-12-07T03:18:18;1.61;87.25
68609;SHT31;55581;46.718;7.690;2022-12-07T03:20:46;1.68;87.09
68609;SHT31;55581;46.718;7.690;2022-12-07T03:23:14;1.61;86.72
68609;SHT31;55581;46.718;7.690;2022-12-07T03:25:45;1.57;87.36
68609;SHT31;55581;46.718;7.690;2022-12-07T03:28:13;1.48;87.45
68609;SHT31;55581;46.718;7.690;2022-12-07T03:31:01;1.54;86.84
68609;SHT31;55581;46.718;7.690;2022-12-07T03:33:38;1.50;86.34
68609;SHT31;55581;46.718;7.690;2022-12-07T03:36:11;1.44;87.57
68609;SHT31;55581;46.718;7.690;2022-12-07T03:38:44;1.47;87.04
68609;SHT31;55581;46.718;7.690;2022-12-07T03:41:28;1.51;87.47
68609;SHT31;55581;46.718;7.690;2022-12-07T03:43:55;1.48;87.44
68609;SHT31;55581;46.718;7.690;2022-12-07T03:46:42;1.36;87.06
68609;SHT31;55581;46.718;7.690;2022-12-07T03:49:24;1.42;87.74
68609;SHT31;55581;46.718;7.690;2022-12-07T03:52:12;1.46;87.83
68609;SHT31;55581;46.718;7.690;2022-12-07T03:57:33;1.63;87.13
68609;SHT31;55581;46.718;7.690;2022-12-07T04:00:00;1.65;86.33
68609;SHT31;55581;46.718;7.690;2022-12-07T04:02:28;1.53;86.94
68609;SHT31;55581;46.718;7.690;2022-12-07T04:04:55;1.61;87.57
68609;SHT31;55581;46.718;7.690;2022-12-07T04:07:21;1.64;88.04
68609;SHT31;55581;46.718;7.690;2022-12-07T04:09:46;1.63;86.93
68609;SHT31;55581;46.718;7.690;2022-12-07T04:12:12;1.56;87.33
68609;SHT31;55581;46.718;7.690;2022-12-07T04:14:37;1.56;88.09
68609;SHT31;55581;46.718;7.690;2022-12-07T04:17:03;1.54;87.57
68609;SHT31;55581;46.718;7.690;2022-12-07T04:19:31;1.54;87.48
68609;SHT31;55581;46.718;7.690;2022-12-07T04:21:59;1.54;86.70
68609;SHT31;55581;46.718;7.690;2022-12-07T04:24:27;1.51;86.24
68609;SHT31;55581;46.718;7.690;2022-12-07T04:26:53;1.47;86.74
68609;SHT31;55581;46.718;7.690;2022-12-07T04:29:20;1.40;86.26
68609;SHT31;55581;46.718;7.690;2022-12-07T04:31:46;1.43;86.25
68609;SHT31;55581;46.718;7.690;2022-12-07T04:34:12;1.46;86.43
68609;SHT31;55581;46.718;7.690;2022-12-07T04:36:38;1.33;85.94
68609;SHT31;55581;46.718;7.690;2022-12-07T04:39:05;1.35;85.98
68609;SHT31;55581;46.718;7.690;2022-12-07T04:41:31;1.32;85.71
68609;SHT31;55581;46.718;7.690;2022-12-07T04:43:59;1.30;85.92
68609;SHT31;55581;46.718;7.690;2022-12-07T04:46:25;1.32;86.16
68609;SHT31;55581;46.718;7.690;2022-12-07T04:48:52;1.30;86.29
68609;SHT31;55581;46.718;7.690;2022-12-07T04:51:25;1.39;85.72
68609;SHT31;55581;46.718;7.690;2022-12-07T04:53:51;1.35;85.15
68609;SHT31;55581;46.718;7.690;2022-12-07T04:56:17;1.30;85.37
68609;SHT31;55581;46.718;7.690;2022-12-07T04:58:46;1.26;85.28
68609;SHT31;55581;46.718;7.690;2022-12-07T05:01:13;1.29;85.05
68609;SHT31;55581;46.718;7.690;2022-12-07T05:03:39;1.33;85.81
68609;SHT31;55581;46.718;7.690;2022-12-07T05:06:05;1.42;86.55
68609;SHT31;55581;46.718;7.690;2022-12-07T05:08:32;1.43;88.77
68609;SHT31;55581;46.718;7.690;2022-12-07T05:10:58;1.27;87.16
68609;SHT31;55581;46.718;7.690;2022-12-07T05:13:24;1.15;87.53
68609;SHT31;55581;46.718;7.690;2022-12-07T05:15:49;1.25;88.60
68609;SHT31;55581;46.718;7.690;2022-12-07T05:18:15;1.36;89.50
68609;SHT31;55581;46.718;7.690;2022-12-07T05:20:42;1.39;90.52
68609;SHT31;55581;46.718;7.690;2022-12-07T05:23:08;1.40;89.47
68609;SHT31;55581;46.718;7.690;2022-12-07T05:25:33;1.40;88.43
68609;SHT31;55581;46.718;7.690;2022-12-07T05:27:59;1.46;88.74
68609;SHT31;55581;46.718;7.690;2022-12-07T05:30:25;1.50;89.16
68609;SHT31;55581;46.718;7.690;2022-12-07T05:32:51;1.37;88.21
68609;SHT31;55581;46.718;7.690;2022-12-07T05:35:17;1.40;88.62
68609;SHT31;55581;46.718;7.690;2022-12-07T05:37:43;1.35;88.46
68609;SHT31;55581;46.718;7.690;2022-12-07T05:40:10;1.36;88.83
68609;SHT31;55581;46.718;7.690;2022-12-07T05:42:35;1.44;88.75
68609;SHT31;55581;46.718;7.690;2022-12-07T05:45:01;1.39;88.24
68609;SHT31;55581;46.718;7.690;2022-12-07T05:47:26;1.43;88.06
68609;SHT31;55581;46.718;7.690;2022-12-07T05:49:51;1.56;88.01
68609;SHT31;55581;46.718;7.690;2022-12-07T05:52:17;1.53;88.97
68609;SHT31;55581;46.718;7.690;2022-12-07T05:54:42;1.56;89.23
68609;SHT31;55581;46.718;7.690;2022-12-07T05:57:08;1.54;88.74
68609;SHT31;55581;46.718;7.690;2022-12-07T05:59:33;1.54;88.62
68609;SHT31;55581;46.718;7.690;2022-12-07T06:02:01;1.43;88.66
68609;SHT31;55581;46.718;7.690;2022-12-07T06:04:29;1.48;88.80
68609;SHT31;55581;46.718;7.690;2022-12-07T06:06:57;1.48;88.67
68609;SHT31;55581;46.718;7.690;2022-12-07T06:09:24;1.53;88.37
68609;SHT31;55581;46.718;7.690;2022-12-07T06:11:50;1.56;88.46
68609;SHT31;55581;46.718;7.690;2022-12-07T06:14:35;1.57;87.72
68609;SHT31;55581;46.718;7.690;2022-12-07T06:17:00;1.57;88.31
68609;SHT31;55581;46.718;7.690;2022-12-07T06:19:26;1.58;87.59
68609;SHT31;55581;46.718;7.690;2022-12-07T06:21:52;1.60;86.43
68609;SHT31;55581;46.718;7.690;2022-12-07T06:24:17;1.56;87.03
68609;SHT31;55581;46.718;7.690;2022-12-07T06:26:43;1.54;87.70
68609;SHT31;55581;46.718;7.690;2022-12-07T06:29:09;1.60;87.79
68609;SHT31;55581;46.718;7.690;2022-12-07T06:31:36;1.58;87.90
68609;SHT31;55581;46.718;7.690;2022-12-07T06:34:04;1.63;87.95
68609;SHT31;55581;46.718;7.690;2022-12-07T06:36:32;1.70;87.76
68609;SHT31;55581;46.718;7.690;2022-12-07T06:38:58;1.63;86.76
68609;SHT31;55581;46.718;7.690;2022-12-07T06:41:23;1.56;86.70
68609;SHT31;55581;46.718;7.690;2022-12-07T06:43:49;1.58;86.84
68609;SHT31;55581;46.718;7.690;2022-12-07T06:46:15;1.58;86.65
68609;SHT31;55581;46.718;7.690;2022-12-07T06:48:41;1.61;86.73
68609;SHT31;55581;46.718;7.690;2022-12-07T06:51:07;1.61;87.01
68609;SHT31;55581;46.718;7.690;2022-12-07T06:53:32;1.63;86.43
68609;SHT31;55581;46.718;7.690;2022-12-07T06:55:57;1.67;86.85
68609;SHT31;55581;46.718;7.690;2022-12-07T06:58:25;1.50;86.78
68609;SHT31;55581;46.718;7.690;2022-12-07T07:00:51;1.44;87.15
68609;SHT31;55581;46.718;7.690;2022-12-07T07:03:16;1.47;87.20
68609;SHT31;55581;46.718;7.690;2022-12-07T07:05:43;1.47;87.57
68609;SHT31;55581;46.718;7.690;2022-12-07T07:08:08;1.47;87.24
68609;SHT31;55581;46.718;7.690;2022-12-07T07:10:34;1.48;87.54
68609;SHT31;55581;46.718;7.690;2022-12-07T07:13:03;1.43;87.20
68609;SHT31;55581;46.718;7.690;2022-12-07T07:15:31;1.48;87.39
68609;SHT31;55581;46.718;7.690;2022-12-07T07:17:56;1.51;87.36
68609;SHT31;55581;46.718;7.690;2022-12-07T07:20:22;1.48;86.57
68609;SHT31;55581;46.718;7.690;2022-12-07T07:22:48;1.44;85.97
68609;SHT31;55581;46.718;7.690;2022-12-07T07:25:14;1.44;86.45
68609;SHT31;55581;46.718;7.690;2022-12-07T07:27:39;1.40;85.87
68609;SHT31;55581;46.718;7.690;2022-12-07T07:30:05;1.37;86.64
68609;SHT31;55581;46.718;7.690;2022-12-07T07:32:31;1.39;85.95
68609;SHT31;55581;46.718;7.690;2022-12-07T07:34:56;1.42;85.74
68609;SHT31;55581;46.718;7.690;2022-12-07T07:37:22;1.47;87.03
68609;SHT31;55581;46.718;7.690;2022-12-07T07:39:47;1.48;86.14
68609;SHT31;55581;46.718;7.690;2022-12-07T07:42:12;1.56;86.43
68609;SHT31;55581;46.718;7.690;2022-12-07T07:44:38;1.57;85.97
68609;SHT31;55581;46.718;7.690;2022-12-07T07:47:03;1.58;86.23
68609;SHT31;55581;46.718;7.690;2022-12-07T07:49:29;1.50;85.51
68609;SHT31;55581;46.718;7.690;2022-12-07T07:51:54;1.46;86.44
68609;SHT31;55581;46.718;7.690;2022-12-07T07:54:22;1.48;86.94
68609;SHT31;55581;46.718;7.690;2022-12-07T07:56:48;1.43;86.13
68609;SHT31;55581;46.718;7.690;2022-12-07T07:59:15;1.48;86.29
68609;SHT31;55581;46.718;7.690;2022-12-07T08:01:40;1.48;86.47
68609;SHT31;55581;46.718;7.690;2022-12-07T08:04:06;1.48;85.99
68609;SHT31;55581;46.718;7.690;2022-12-07T08:06:31;1.57;85.93
68609;SHT31;55581;46.718;7.690;2022-12-07T08:08:56;1.64;85.86
68609;SHT31;55581;46.718;7.690;2022-12-07T08:11:23;1.68;85.84
68609;SHT31;55581;46.718;7.690;2022-12-07T08:13:48;1.78;84.77
68609;SHT31;55581;46.718;7.690;2022-12-07T08:16:14;1.79;85.15
68609;SHT31;55581;46.718;7.690;2022-12-07T08:18:40;1.67;84.54
68609;SHT31;55581;46.718;7.690;2022-12-07T08:21:07;1.70;84.23
68609;SHT31;55581;46.718;7.690;2022-12-07T08:23:34;1.77;84.92
68609;SHT31;55581;46.718;7.690;2022-12-07T08:26:01;1.84;84.28
68609;SHT31;55581;46.718;7.690;2022-12-07T08:28:28;1.78;83.98
68609;SHT31;55581;46.718;7.690;2022-12-07T08:31:02;1.91;83.57
68609;SHT31;55581;46.718;7.690;2022-12-07T08:33:28;1.94;83.02
68609;SHT31;55581;46.718;7.690;2022-12-07T08:35:55;1.95;83.25
68609;SHT31;55581;46.718;7.690;2022-12-07T08:38:24;2.02;82.69
68609;SHT31;55581;46.718;7.690;2022-12-07T08:40:57;1.92;82.48
68609;SHT31;55581;46.718;7.690;2022-12-07T08:43:24;1.98;82.61
68609;SHT31;55581;46.718;7.690;2022-12-07T08:48:22;2.02;82.56
68609;SHT31;55581;46.718;7.690;2022-12-07T08:50:50;2.06;82.72
68609;SHT31;55581;46.718;7.690;2022-12-07T08:53:18;2.11;82.64
68609;SHT31;55581;46.718;7.690;2022-12-07T08:55:45;2.08;82.56
68609;SHT31;55581;46.718;7.690;2022-12-07T08:58:11;2.12;82.62
68609;SHT31;55581;46.718;7.690;2022-12-07T09:00:36;2.15;82.88
68609;SHT31;55581;46.718;7.690;2022-12-07T09:03:02;2.15;83.59
68609;SHT31;55581;46.718;7.690;2022-12-07T09:05:27;2.25;83.64
68609;SHT31;55581;46.718;7.690;2022-12-07T09:07:56;2.32;82.67
68609;SHT31;55581;46.718;7.690;2022-12-07T09:10:22;2.26;82.42
68609;SHT31;55581;46.718;7.690;2022-12-07T09:12:48;2.37;82.99
68609;SHT31;55581;46.718;7.690;2022-12-07T09:15:14;2.39;82.95
68609;SHT31;55581;46.718;7.690;2022-12-07T09:17:39;2.44;83.00
68609;SHT31;55581;46.718;7.690;2022-12-07T09:20:06;2.50;83.61
68609;SHT31;55581;46.718;7.690;2022-12-07T09:22:32;2.50;82.78
68609;SHT31;55581;46.718;7.690;2022-12-07T09:24:58;2.46;81.09
68609;SHT31;55581;46.718;7.690;2022-12-07T09:27:24;2.49;81.88
68609;SHT31;55581;46.718;7.690;2022-12-07T09:29:49;2.50;81.87
68609;SHT31;55581;46.718;7.690;2022-12-07T09:32:14;2.54;81.75
68609;SHT31;55581;46.718;7.690;2022-12-07T09:34:40;2.61;80.66
68609;SHT31;55581;46.718;7.690;2022-12-07T09:37:05;2.58;80.06
68609;SHT31;55581;46.718;7.690;2022-12-07T09:39:31;2.62;80.82
68609;SHT31;55581;46.718;7.690;2022-12-07T09:42:02;2.74;81.08
68609;SHT31;55581;46.718;7.690;2022-12-07T09:44:28;2.87;80.19
68609;SHT31;55581;46.718;7.690;2022-12-07T09:46:54;2.84;79.07
68609;SHT31;55581;46.718;7.690;2022-12-07T09:49:23;3.01;80.32
68609;SHT31;55581;46.718;7.690;2022-12-07T09:52:19;2.99;78.92
68609;SHT31;55581;46.718;7.690;2022-12-07T09:54:48;2.96;78.63
68609;SHT31;55581;46.718;7.690;2022-12-07T09:57:15;2.95;79.39
68609;SHT31;55581;46.718;7.690;2022-12-07T09:59:41;2.96;79.02
68609;SHT31;55581;46.718;7.690;2022-12-07T10:02:58;3.04;79.74
68609;SHT31;55581;46.718;7.690;2022-12-07T10:05:45;3.16;78.84
68609;SHT31;55581;46.718;7.690;2022-12-07T10:08:14;3.20;78.46
68609;SHT31;55581;46.718;7.690;2022-12-07T10:10:41;3.30;78.36
68609;SHT31;55581;46.718;7.690;2022-12-07T10:13:11;3.23;77.71
68609;SHT31;55581;46.718;7.690;2022-12-07T10:16:32;3.22;77.32
68609;SHT31;55581;46.718;7.690;2022-12-07T10:18:52;3.23;78.26
68609;SHT31;55581;46.718;7.690;2022-12-07T10:21:23;3.34;77.90
68609;SHT31;55581;46.718;7.690;2022-12-07T10:24:05;3.42;76.53
68609;SHT31;55581;46.718;7.690;2022-12-07T10:29:04;3.49;77.01
68609;SHT31;55581;46.718;7.690;2022-12-07T10:31:38;3.46;77.47
68609;SHT31;55581;46.718;7.690;2022-12-07T10:36:47;3.74;77.40
68609;SHT31;55581;46.718;7.690;2022-12-07T10:39:31;3.84;77.09
68609;SHT31;55581;46.718;7.690;2022-12-07T10:42:03;3.84;75.87
68609;SHT31;55581;46.718;7.690;2022-12-07T10:44:33;3.88;76.09
68609;SHT31;55581;46.718;7.690;2022-12-07T10:49:50;4.02;76.82
68609;SHT31;55581;46.718;7.690;2022-12-07T11:00:37;3.97;75.36
68609;SHT31;55581;46.718;7.690;2022-12-07T11:06:33;4.06;76.35
68609;SHT31;55581;46.718;7.690;2022-12-07T11:09:14;3.94;75.80
68609;SHT31;55581;46.718;7.690;2022-12-07T11:23:21;3.92;76.60
68609;SHT31;55581;46.718;7.690;2022-12-07T11:28:34;3.95;75.47
68609;SHT31;55581;46.718;7.690;2022-12-07T11:31:29;3.94;75.52
68609;SHT31;55581;46.718;7.690;2022-12-07T11:34:10;3.98;75.09
68609;SHT31;55581;46.718;7.690;2022-12-07T11:36:41;3.98;76.15
68609;SHT31;55581;46.718;7.690;2022-12-07T11:41:50;3.99;76.71
68609;SHT31;55581;46.718;7.690;2022-12-07T11:44:33;3.84;76.18
68609;SHT31;55581;46.718;7.690;2022-12-07T11:47:17;3.97;75.51
68609;SHT31;55581;46.718;7.690;2022-12-07T11:49:53;3.97;75.25
68609;SHT31;55581;46.718;7.690;2022-12-07T11:52:30;4.01;75.16
68609;SHT31;55581;46.718;7.690;2022-12-07T11:54:57;3.97;75.10
68609;SHT31;55581;46.718;7.690;2022-12-07T11:57:33;4.05;75.73
68609;SHT31;55581;46.718;7.690;2022-12-07T12:00:05;4.12;75.47
68609;SHT31;55581;46.718;7.690;2022-12-07T12:02:37;4.10;74.72
68609;SHT31;55581;46.718;7.690;2022-12-07T12:05:18;4.06;74.66
68609;SHT31;55581;46.718;7.690;2022-12-07T12:07:46;4.03;74.01
68609;SHT31;55581;46.718;7.690;2022-12-07T12:21:04;3.98;72.90
68609;SHT31;55581;46.718;7.690;2022-12-07T12:26:26;3.92;74.44
68609;SHT31;55581;46.718;7.690;2022-12-07T12:28:56;3.99;72.18
68609;SHT31;55581;46.718;7.690;2022-12-07T12:34:10;4.13;72.37
68609;SHT31;55581;46.718;7.690;2022-12-07T12:36:49;4.08;71.86
68609;SHT31;55581;46.718;7.690;2022-12-07T12:39:16;4.09;71.73
68609;SHT31;55581;46.718;7.690;2022-12-07T12:55:17;3.94;73.70
68609;SHT31;55581;46.718;7.690;2022-12-07T13:05:02;4.03;73.20
68609;SHT31;55581;46.718;7.690;2022-12-07T13:15:36;4.02;72.57
68609;SHT31;55581;46.718;7.690;2022-12-07T13:20:56;3.87;72.58
68609;SHT31;55581;46.718;7.690;2022-12-07T13:23:31;3.94;72.52
68609;SHT31;55581;46.718;7.690;2022-12-07T13:28:36;3.95;72.71
68609;SHT31;55581;46.718;7.690;2022-12-07T13:33:35;4.01;71.74
68609;SHT31;55581;46.718;7.690;2022-12-07T13:36:01;4.09;71.83
68609;SHT31;55581;46.718;7.690;2022-12-07T13:38:30;4.03;71.81
68609;SHT31;55581;46.718;7.690;2022-12-07T13:43:48;4.19;72.60
68609;SHT31;55581;46.718;7.690;2022-12-07T13:46:13;4.15;72.30
68609;SHT31;55581;46.718;7.690;2022-12-07T13:48:47;4.19;72.51
68609;SHT31;55581;46.718;7.690;2022-12-07T13:51:36;4.17;72.85
68609;SHT31;55581;46.718;7.690;2022-12-07T13:54:10;4.12;73.07
68609;SHT31;55581;46.718;7.690;2022-12-07T13:56:36;4.13;73.54
68609;SHT31;55581;46.718;7.690;2022-12-07T13:59:02;4.15;72.55
68609;SHT31;55581;46.718;7.690;2022-12-07T14:01:30;4.23;71.06
68609;SHT31;55581;46.718;7.690;2022-12-07T14:03:56;4.17;70.55
68609;SHT31;55581;46.718;7.690;2022-12-07T14:06:51;4.16;71.22
68609;SHT31;55581;46.718;7.690;2022-12-07T14:09:24;4.10;71.07
68609;SHT31;55581;46.718;7.690;2022-12-07T14:11:52;4.12;70.46
68609;SHT31;55581;46.718;7.690;2022-12-07T14:14:21;4.06;71.02
68609;SHT31;55581;46.718;7.690;2022-12-07T14:17:26;4.05;71.92
68609;SHT31;55581;46.718;7.690;2022-12-07T14:19:55;4.05;72.13
68609;SHT31;55581;46.718;7.690;2022-12-07T14:24:59;4.01;72.82
68609;SHT31;55581;46.718;7.690;2022-12-07T14:27:24;4.03;72.84
68609;SHT31;55581;46.718;7.690;2022-12-07T14:29:58;4.09;72.68
68609;SHT31;55581;46.718;7.690;2022-12-07T14:32:25;4.09;72.50
68609;SHT31;55581;46.718;7.690;2022-12-07T14:37:20;4.08;71.94
68609;SHT31;55581;46.718;7.690;2022-12-07T14:39:45;4.06;72.47
68609;SHT31;55581;46.718;7.690;2022-12-07T14:42:10;3.98;72.57
68609;SHT31;55581;46.718;7.690;2022-12-07T14:44:36;3.95;73.82
68609;SHT31;55581;46.718;7.690;2022-12-07T14:47:01;3.92;74.63
68609;SHT31;55581;46.718;7.690;2022-12-07T14:49:29;3.95;75.76
68609;SHT31;55581;46.718;7.690;2022-12-07T14:51:58;3.95;74.37
68609;SHT31;55581;46.718;7.690;2022-12-07T14:54:25;3.94;73.92
68609;SHT31;55581;46.718;7.690;2022-12-07T14:56:53;3.91;73.74
68609;SHT31;55581;46.718;7.690;2022-12-07T14:59:18;3.92;74.58
68609;SHT31;55581;46.718;7.690;2022-12-07T15:01:44;3.92;74.57
68609;SHT31;55581;46.718;7.690;2022-12-07T15:04:09;3.75;74.52
68609;SHT31;55581;46.718;7.690;2022-12-07T15:06:35;3.70;75.10
68609;SHT31;55581;46.718;7.690;2022-12-07T15:09:01;3.71;74.99
68609;SHT31;55581;46.718;7.690;2022-12-07T15:11:27;3.73;74.77
68609;SHT31;55581;46.718;7.690;2022-12-07T15:13:53;3.73;73.83
68609;SHT31;55581;46.718;7.690;2022-12-07T15:16:34;3.61;74.62
68609;SHT31;55581;46.718;7.690;2022-12-07T15:19:00;3.67;74.77
68609;SHT31;55581;46.718;7.690;2022-12-07T15:21:25;3.66;74.92
68609;SHT31;55581;46.718;7.690;2022-12-07T15:23:51;3.64;75.60
68609;SHT31;55581;46.718;7.690;2022-12-07T15:26:17;3.54;75.63
68609;SHT31;55581;46.718;7.690;2022-12-07T15:28:42;3.46;75.79
68609;SHT31;55581;46.718;7.690;2022-12-07T15:31:15;3.51;75.88
68609;SHT31;55581;46.718;7.690;2022-12-07T15:33:41;3.53;75.57
68609;SHT31;55581;46.718;7.690;2022-12-07T15:36:07;3.51;76.07
68609;SHT31;55581;46.718;7.690;2022-12-07T15:38:33;3.50;75.55
68609;SHT31;55581;46.718;7.690;2022-12-07T15:40:58;3.66;76.09
68609;SHT31;55581;46.718;7.690;2022-12-07T15:43:23;3.68;75.65
68609;SHT31;55581;46.718;7.690;2022-12-07T15:46:07;3.67;75.62
68609;SHT31;55581;46.718;7.690;2022-12-07T15:48:33;3.70;75.27
68609;SHT31;55581;46.718;7.690;2022-12-07T15:51:03;3.61;74.98
68609;SHT31;55581;46.718;7.690;2022-12-07T15:53:29;3.56;74.92
68609;SHT31;55581;46.718;7.690;2022-12-07T15:55:54;3.59;75.43
68609;SHT31;55581;46.718;7.690;2022-12-07T15:58:19;3.53;75.43
68609;SHT31;55581;46.718;7.690;2022-12-07T16:00:45;3.47;75.78
68609;SHT31;55581;46.718;7.690;2022-12-07T16:03:11;3.49;76.10
68609;SHT31;55581;46.718;7.690;2022-12-07T16:05:36;3.40;77.83
68609;SHT31;55581;46.718;7.690;2022-12-07T16:08:02;3.44;77.58
68609;SHT31;55581;46.718;7.690;2022-12-07T16:10:27;3.47;77.63
68609;SHT31;55581;46.718;7.690;2022-12-07T16:12:53;3.46;77.69
68609;SHT31;55581;46.718;7.690;2022-12-07T16:15:18;3.40;77.52
68609;SHT31;55581;46.718;7.690;2022-12-07T16:17:46;3.37;78.05
68609;SHT31;55581;46.718;7.690;2022-12-07T16:20:11;3.32;78.16
68609;SHT31;55581;46.718;7.690;2022-12-07T16:22:37;3.27;77.67
68609;SHT31;55581;46.718;7.690;2022-12-07T16:25:05;3.29;77.74
68609;SHT31;55581;46.718;7.690;2022-12-07T16:27:30;3.20;77.42
68609;SHT31;55581;46.718;7.690;2022-12-07T16:29:55;3.16;77.23
68609;SHT31;55581;46.718;7.690;2022-12-07T16:32:21;3.11;77.20
68609;SHT31;55581;46.718;7.690;2022-12-07T16:34:46;3.15;77.60
68609;SHT31;55581;46.718;7.690;2022-12-07T16:37:12;3.15;78.44
68609;SHT31;55581;46.718;7.690;2022-12-07T16:39:37;3.20;78.73
68609;SHT31;55581;46.718;7.690;2022-12-07T16:42:03;3.16;78.55
68609;SHT31;55581;46.718;7.690;2022-12-07T16:44:28;3.22;78.65
68609;SHT31;55581;46.718;7.690;2022-12-07T16:46:53;3.32;79.21
68609;SHT31;55581;46.718;7.690;2022-12-07T16:49:19;3.26;77.24
68609;SHT31;55581;46.718;7.690;2022-12-07T16:51:44;3.39;79.69
68609;SHT31;55581;46.718;7.690;2022-12-07T16:54:12;3.37;78.60
68609;SHT31;55581;46.718;7.690;2022-12-07T16:56:37;3.50;79.98
68609;SHT31;55581;46.718;7.690;2022-12-07T16:59:03;3.54;80.26
68609;SHT31;55581;46.718;7.690;2022-12-07T17:01:28;3.50;77.26
68609;SHT31;55581;46.718;7.690;2022-12-07T17:03:55;3.60;80.61
68609;SHT31;55581;46.718;7.690;2022-12-07T17:06:23;3.59;78.99
68609;SHT31;55581;46.718;7.690;2022-12-07T17:08:50;3.61;77.03
68609;SHT31;55581;46.718;7.690;2022-12-07T17:11:27;3.57;77.36
68609;SHT31;55581;46.718;7.690;2022-12-07T17:13:53;3.47;77.70
68609;SHT31;55581;46.718;7.690;2022-12-07T17:16:38;3.44;78.99
68609;SHT31;55581;46.718;7.690;2022-12-07T17:19:05;3.46;79.31
68609;SHT31;55581;46.718;7.690;2022-12-07T17:21:34;3.49;80.27
68609;SHT31;55581;46.718;7.690;2022-12-07T17:24:00;3.46;77.58
68609;SHT31;55581;46.718;7.690;2022-12-07T17:26:27;3.46;77.46
68609;SHT31;55581;46.718;7.690;2022-12-07T17:28:53;3.44;77.93
68609;SHT31;55581;46.718;7.690;2022-12-07T17:31:20;3.44;78.49
68609;SHT31;55581;46.718;7.690;2022-12-07T17:33:46;3.30;77.93
68609;SHT31;55581;46.718;7.690;2022-12-07T17:36:24;3.51;80.69
68609;SHT31;55581;46.718;7.690;2022-12-07T17:38:50;3.42;78.32
68609;SHT31;55581;46.718;7.690;2022-12-07T17:41:24;3.42;78.83
68609;SHT31;55581;46.718;7.690;2022-12-07T17:44:10;3.29;78.61
68609;SHT31;55581;46.718;7.690;2022-12-07T17:46:36;3.32;78.58
68609;SHT31;55581;46.718;7.690;2022-12-07T17:49:02;3.33;79.38
68609;SHT31;55581;46.718;7.690;2022-12-07T17:51:28;3.40;79.56
68609;SHT31;55581;46.718;7.690;2022-12-07T17:54:12;3.44;78.99